sensor_id;sensor_type;location;lat;lon;timestamp;P1;durP1;ratioP1;P2;durP2;ratioP2
19735;SDS011;32064;49.310;8.646;2023-03-24T00:01:41;1.95;;;1.75;;
19735;SDS011;32064;49.310;8.646;2023-03-24T00:04:06;2.33;;;1.90;;
19735;SDS011;32064;49.310;8.646;2023-03-24T00:06:33;2.75;;;1.90;;
19735;SDS011;32064;49.310;8.646;2023-03-24T00:09:01;5.38;;;2.20;;
19735;SDS011;32064;49.310;8.646;2023-03-24T00:11:28;2.25;;;1.60;;
19735;SDS011;32064;49.310;8.646;2023-03-24T00:13:54;3.08;;;1.70;;
19735;SDS011;32064;49.310;8.646;2023-03-24T00:16:22;2.60;;;1.67;;
19735;SDS011;32064;49.310;8.646;2023-03-24T00:18:48;1.95;;;1.63;;
19735;SDS011;32064;49.310;8.646;2023-03-24T00:21:17;2.22;;;1.60;;
19735;SDS011;32064;49.310;8.646;2023-03-24T00:23:46;1.55;;;1.40;;
19735;SDS011;32064;49.310;8.646;2023-03-24T00:26:13;2.72;;;1.80;;
19735;SDS011;32064;49.310;8.646;2023-03-24T00:28:45;2.72;;;1.75;;
19735;SDS011;32064;49.310;8.646;2023-03-24T00:31:12;1.73;;;1.63;;
19735;SDS011;32064;49.310;8.646;2023-03-24T00:33:39;4.03;;;1.90;;
19735;SDS011;32064;49.310;8.646;2023-03-24T00:36:06;1.42;;;1.33;;
19735;SDS011;32064;49.310;8.646;2023-03-24T00:38:37;1.48;;;1.38;;
19735;SDS011;32064;49.310;8.646;2023-03-24T00:41:04;2.53;;;2.00;;
19735;SDS011;32064;49.310;8.646;2023-03-24T00:43:33;2.20;;;1.63;;
19735;SDS011;32064;49.310;8.646;2023-03-24T00:45:59;3.30;;;1.60;;
19735;SDS011;32064;49.310;8.646;2023-03-24T00:48:27;5.63;;;1.70;;
19735;SDS011;32064;49.310;8.646;2023-03-24T00:50:53;2.00;;;1.45;;
19735;SDS011;32064;49.310;8.646;2023-03-24T00:53:19;2.27;;;1.47;;
19735;SDS011;32064;49.310;8.646;2023-03-24T00:55:47;2.17;;;1.38;;
19735;SDS011;32064;49.310;8.646;2023-03-24T00:58:14;2.92;;;1.70;;
19735;SDS011;32064;49.310;8.646;2023-03-24T01:00:47;1.40;;;1.30;;
19735;SDS011;32064;49.310;8.646;2023-03-24T01:03:20;2.33;;;1.20;;
19735;SDS011;32064;49.310;8.646;2023-03-24T01:05:50;1.90;;;1.50;;
19735;SDS011;32064;49.310;8.646;2023-03-24T01:08:17;1.23;;;1.13;;
19735;SDS011;32064;49.310;8.646;2023-03-24T01:10:47;1.60;;;1.30;;
19735;SDS011;32064;49.310;8.646;2023-03-24T01:13:24;4.80;;;1.40;;
19735;SDS011;32064;49.310;8.646;2023-03-24T01:15:52;2.67;;;1.20;;
19735;SDS011;32064;49.310;8.646;2023-03-24T01:18:19;1.97;;;1.57;;
19735;SDS011;32064;49.310;8.646;2023-03-24T01:20:47;2.05;;;1.50;;
19735;SDS011;32064;49.310;8.646;2023-03-24T01:23:15;1.83;;;1.20;;
19735;SDS011;32064;49.310;8.646;2023-03-24T01:25:48;1.60;;;0.98;;
19735;SDS011;32064;49.310;8.646;2023-03-24T01:28:15;1.90;;;1.40;;
19735;SDS011;32064;49.310;8.646;2023-03-24T01:30:42;1.50;;;1.30;;
19735;SDS011;32064;49.310;8.646;2023-03-24T01:33:08;1.48;;;1.38;;
19735;SDS011;32064;49.310;8.646;2023-03-24T01:35:35;1.75;;;1.20;;
19735;SDS011;32064;49.310;8.646;2023-03-24T01:38:03;4.28;;;1.27;;
19735;SDS011;32064;49.310;8.646;2023-03-24T01:40:31;1.35;;;1.25;;
19735;SDS011;32064;49.310;8.646;2023-03-24T01:42:58;4.35;;;1.40;;
19735;SDS011;32064;49.310;8.646;2023-03-24T01:48:24;1.55;;;1.27;;
19735;SDS011;32064;49.310;8.646;2023-03-24T01:50:56;1.52;;;1.10;;
19735;SDS011;32064;49.310;8.646;2023-03-24T01:53:30;1.63;;;1.20;;
19735;SDS011;32064;49.310;8.646;2023-03-24T01:55:58;2.42;;;1.30;;
19735;SDS011;32064;49.310;8.646;2023-03-24T01:58:27;1.55;;;1.30;;
19735;SDS011;32064;49.310;8.646;2023-03-24T02:00:54;1.23;;;1.13;;
19735;SDS011;32064;49.310;8.646;2023-03-24T02:03:22;1.50;;;1.17;;
19735;SDS011;32064;49.310;8.646;2023-03-24T02:05:49;2.45;;;1.27;;
19735;SDS011;32064;49.310;8.646;2023-03-24T02:08:21;1.60;;;1.33;;
19735;SDS011;32064;49.310;8.646;2023-03-24T02:10:47;1.45;;;1.30;;
19735;SDS011;32064;49.310;8.646;2023-03-24T02:13:15;1.25;;;1.15;;
19735;SDS011;32064;49.310;8.646;2023-03-24T02:15:46;1.45;;;1.08;;
19735;SDS011;32064;49.310;8.646;2023-03-24T02:18:44;2.15;;;1.30;;
19735;SDS011;32064;49.310;8.646;2023-03-24T02:27:01;1.77;;;1.20;;
19735;SDS011;32064;49.310;8.646;2023-03-24T02:38:14;1.58;;;1.05;;
19735;SDS011;32064;49.310;8.646;2023-03-24T02:41:07;1.50;;;1.10;;
19735;SDS011;32064;49.310;8.646;2023-03-24T02:46:43;1.52;;;1.10;;
19735;SDS011;32064;49.310;8.646;2023-03-24T02:54:43;1.92;;;1.35;;
19735;SDS011;32064;49.310;8.646;2023-03-24T02:57:18;1.35;;;1.15;;
19735;SDS011;32064;49.310;8.646;2023-03-24T03:02:25;1.60;;;1.20;;
19735;SDS011;32064;49.310;8.646;2023-03-24T03:05:03;1.95;;;1.30;;
19735;SDS011;32064;49.310;8.646;2023-03-24T03:07:38;1.42;;;1.23;;
19735;SDS011;32064;49.310;8.646;2023-03-24T03:12:43;1.35;;;1.13;;
19735;SDS011;32064;49.310;8.646;2023-03-24T03:15:11;1.70;;;1.27;;
19735;SDS011;32064;49.310;8.646;2023-03-24T03:17:41;3.45;;;1.23;;
19735;SDS011;32064;49.310;8.646;2023-03-24T03:20:14;2.00;;;1.48;;
19735;SDS011;32064;49.310;8.646;2023-03-24T03:22:48;2.78;;;1.10;;
19735;SDS011;32064;49.310;8.646;2023-03-24T03:25:20;1.58;;;1.13;;
19735;SDS011;32064;49.310;8.646;2023-03-24T03:27:50;1.15;;;1.00;;
19735;SDS011;32064;49.310;8.646;2023-03-24T03:30:23;1.83;;;1.08;;
19735;SDS011;32064;49.310;8.646;2023-03-24T03:33:08;1.45;;;1.23;;
19735;SDS011;32064;49.310;8.646;2023-03-24T03:36:11;1.45;;;1.02;;
19735;SDS011;32064;49.310;8.646;2023-03-24T03:41:40;1.15;;;1.05;;
19735;SDS011;32064;49.310;8.646;2023-03-24T03:44:07;1.65;;;1.30;;
19735;SDS011;32064;49.310;8.646;2023-03-24T03:46:33;1.50;;;1.30;;
19735;SDS011;32064;49.310;8.646;2023-03-24T03:49:00;4.88;;;2.70;;
19735;SDS011;32064;49.310;8.646;2023-03-24T03:51:25;7.68;;;4.65;;
19735;SDS011;32064;49.310;8.646;2023-03-24T03:53:53;1.70;;;1.60;;
19735;SDS011;32064;49.310;8.646;2023-03-24T03:56:24;2.50;;;1.75;;
19735;SDS011;32064;49.310;8.646;2023-03-24T03:58:54;1.88;;;1.30;;
19735;SDS011;32064;49.310;8.646;2023-03-24T04:01:20;1.52;;;1.10;;
19735;SDS011;32064;49.310;8.646;2023-03-24T04:03:52;1.50;;;1.27;;
19735;SDS011;32064;49.310;8.646;2023-03-24T04:23:31;2.15;;;1.70;;
19735;SDS011;32064;49.310;8.646;2023-03-24T04:31:43;2.67;;;1.85;;
19735;SDS011;32064;49.310;8.646;2023-03-24T04:34:21;1.60;;;1.50;;
19735;SDS011;32064;49.310;8.646;2023-03-24T04:39:36;2.08;;;1.58;;
19735;SDS011;32064;49.310;8.646;2023-03-24T04:42:06;2.35;;;1.70;;
19735;SDS011;32064;49.310;8.646;2023-03-24T04:44:36;2.25;;;1.67;;
19735;SDS011;32064;49.310;8.646;2023-03-24T04:47:01;2.20;;;1.60;;
19735;SDS011;32064;49.310;8.646;2023-03-24T04:49:29;1.85;;;1.50;;
19735;SDS011;32064;49.310;8.646;2023-03-24T04:51:54;2.28;;;1.55;;
19735;SDS011;32064;49.310;8.646;2023-03-24T04:54:21;4.05;;;1.70;;
19735;SDS011;32064;49.310;8.646;2023-03-24T04:56:48;1.67;;;1.58;;
19735;SDS011;32064;49.310;8.646;2023-03-24T04:59:15;1.73;;;1.63;;
19735;SDS011;32064;49.310;8.646;2023-03-24T05:01:41;2.72;;;1.80;;
19735;SDS011;32064;49.310;8.646;2023-03-24T05:04:13;1.77;;;1.40;;
19735;SDS011;32064;49.310;8.646;2023-03-24T05:06:43;2.10;;;1.58;;
19735;SDS011;32064;49.310;8.646;2023-03-24T05:09:11;1.98;;;1.77;;
19735;SDS011;32064;49.310;8.646;2023-03-24T05:11:37;2.03;;;1.70;;
19735;SDS011;32064;49.310;8.646;2023-03-24T05:14:03;5.00;;;1.77;;
19735;SDS011;32064;49.310;8.646;2023-03-24T05:16:28;1.85;;;1.42;;
19735;SDS011;32064;49.310;8.646;2023-03-24T05:18:53;2.83;;;2.03;;
19735;SDS011;32064;49.310;8.646;2023-03-24T05:21:19;1.90;;;1.70;;
19735;SDS011;32064;49.310;8.646;2023-03-24T05:23:44;3.55;;;1.85;;
19735;SDS011;32064;49.310;8.646;2023-03-24T05:26:10;2.85;;;1.90;;
19735;SDS011;32064;49.310;8.646;2023-03-24T05:28:35;2.67;;;1.80;;
19735;SDS011;32064;49.310;8.646;2023-03-24T05:31:01;2.33;;;1.88;;
19735;SDS011;32064;49.310;8.646;2023-03-24T05:33:26;2.03;;;1.80;;
19735;SDS011;32064;49.310;8.646;2023-03-24T05:35:52;2.92;;;1.95;;
19735;SDS011;32064;49.310;8.646;2023-03-24T05:38:17;6.13;;;1.93;;
19735;SDS011;32064;49.310;8.646;2023-03-24T05:40:45;2.78;;;2.00;;
19735;SDS011;32064;49.310;8.646;2023-03-24T05:43:11;2.43;;;1.90;;
19735;SDS011;32064;49.310;8.646;2023-03-24T05:45:37;2.40;;;1.92;;
19735;SDS011;32064;49.310;8.646;2023-03-24T05:48:02;5.20;;;2.35;;
19735;SDS011;32064;49.310;8.646;2023-03-24T05:50:28;2.10;;;1.90;;
19735;SDS011;32064;49.310;8.646;2023-03-24T05:52:54;2.78;;;2.08;;
19735;SDS011;32064;49.310;8.646;2023-03-24T05:55:20;3.03;;;2.10;;
19735;SDS011;32064;49.310;8.646;2023-03-24T05:57:46;2.53;;;2.00;;
19735;SDS011;32064;49.310;8.646;2023-03-24T06:00:11;2.20;;;2.00;;
19735;SDS011;32064;49.310;8.646;2023-03-24T06:02:41;3.08;;;2.30;;
19735;SDS011;32064;49.310;8.646;2023-03-24T06:05:08;3.63;;;2.33;;
19735;SDS011;32064;49.310;8.646;2023-03-24T06:07:34;2.40;;;2.10;;
19735;SDS011;32064;49.310;8.646;2023-03-24T06:10:00;3.45;;;2.60;;
19735;SDS011;32064;49.310;8.646;2023-03-24T06:12:28;3.50;;;2.33;;
19735;SDS011;32064;49.310;8.646;2023-03-24T06:14:58;2.50;;;2.30;;
19735;SDS011;32064;49.310;8.646;2023-03-24T06:17:25;2.97;;;2.60;;
19735;SDS011;32064;49.310;8.646;2023-03-24T06:19:52;3.58;;;2.30;;
19735;SDS011;32064;49.310;8.646;2023-03-24T06:22:18;4.47;;;2.60;;
19735;SDS011;32064;49.310;8.646;2023-03-24T06:24:45;3.95;;;2.42;;
19735;SDS011;32064;49.310;8.646;2023-03-24T06:27:14;2.65;;;2.30;;
19735;SDS011;32064;49.310;8.646;2023-03-24T06:29:42;6.53;;;2.40;;
19735;SDS011;32064;49.310;8.646;2023-03-24T06:32:08;3.65;;;2.70;;
19735;SDS011;32064;49.310;8.646;2023-03-24T06:34:34;3.92;;;2.88;;
19735;SDS011;32064;49.310;8.646;2023-03-24T06:36:59;3.22;;;2.63;;
19735;SDS011;32064;49.310;8.646;2023-03-24T06:39:24;4.63;;;2.33;;
19735;SDS011;32064;49.310;8.646;2023-03-24T06:41:50;5.13;;;2.15;;
19735;SDS011;32064;49.310;8.646;2023-03-24T06:44:16;4.18;;;2.10;;
19735;SDS011;32064;49.310;8.646;2023-03-24T06:46:42;2.73;;;2.30;;
19735;SDS011;32064;49.310;8.646;2023-03-24T06:49:09;2.67;;;2.33;;
19735;SDS011;32064;49.310;8.646;2023-03-24T06:51:35;2.55;;;2.22;;
19735;SDS011;32064;49.310;8.646;2023-03-24T06:54:00;2.42;;;2.17;;
19735;SDS011;32064;49.310;8.646;2023-03-24T06:56:27;2.03;;;1.83;;
19735;SDS011;32064;49.310;8.646;2023-03-24T06:58:53;4.05;;;2.15;;
19735;SDS011;32064;49.310;8.646;2023-03-24T07:01:18;2.97;;;2.08;;
19735;SDS011;32064;49.310;8.646;2023-03-24T07:03:44;3.40;;;1.90;;
19735;SDS011;32064;49.310;8.646;2023-03-24T07:06:09;2.65;;;1.85;;
19735;SDS011;32064;49.310;8.646;2023-03-24T07:08:35;3.90;;;2.17;;
19735;SDS011;32064;49.310;8.646;2023-03-24T07:11:01;8.30;;;5.32;;
19735;SDS011;32064;49.310;8.646;2023-03-24T07:13:28;3.00;;;2.47;;
19735;SDS011;32064;49.310;8.646;2023-03-24T07:15:53;2.38;;;2.17;;
19735;SDS011;32064;49.310;8.646;2023-03-24T07:18:19;2.35;;;1.63;;
19735;SDS011;32064;49.310;8.646;2023-03-24T07:20:45;2.75;;;2.15;;
19735;SDS011;32064;49.310;8.646;2023-03-24T07:23:11;2.85;;;2.10;;
19735;SDS011;32064;49.310;8.646;2023-03-24T07:25:38;3.10;;;1.92;;
19735;SDS011;32064;49.310;8.646;2023-03-24T07:28:04;2.90;;;2.22;;
19735;SDS011;32064;49.310;8.646;2023-03-24T07:30:32;2.28;;;1.90;;
19735;SDS011;32064;49.310;8.646;2023-03-24T07:33:00;3.63;;;2.00;;
19735;SDS011;32064;49.310;8.646;2023-03-24T07:35:27;4.80;;;1.83;;
19735;SDS011;32064;49.310;8.646;2023-03-24T07:37:56;2.17;;;1.53;;
19735;SDS011;32064;49.310;8.646;2023-03-24T07:40:22;2.20;;;1.90;;
19735;SDS011;32064;49.310;8.646;2023-03-24T07:42:48;6.68;;;2.08;;
19735;SDS011;32064;49.310;8.646;2023-03-24T07:45:14;2.40;;;2.00;;
19735;SDS011;32064;49.310;8.646;2023-03-24T07:47:41;6.65;;;2.00;;
19735;SDS011;32064;49.310;8.646;2023-03-24T07:50:09;4.10;;;2.20;;
19735;SDS011;32064;49.310;8.646;2023-03-24T07:52:39;2.78;;;1.80;;
19735;SDS011;32064;49.310;8.646;2023-03-24T07:55:06;3.38;;;1.65;;
19735;SDS011;32064;49.310;8.646;2023-03-24T07:57:34;3.90;;;1.70;;
19735;SDS011;32064;49.310;8.646;2023-03-24T08:00:02;2.15;;;1.52;;
19735;SDS011;32064;49.310;8.646;2023-03-24T08:02:34;3.47;;;1.63;;
19735;SDS011;32064;49.310;8.646;2023-03-24T08:05:00;1.92;;;1.67;;
19735;SDS011;32064;49.310;8.646;2023-03-24T08:07:26;1.80;;;1.50;;
19735;SDS011;32064;49.310;8.646;2023-03-24T08:09:52;2.63;;;1.50;;
19735;SDS011;32064;49.310;8.646;2023-03-24T08:12:17;1.80;;;1.40;;
19735;SDS011;32064;49.310;8.646;2023-03-24T08:14:42;2.13;;;1.38;;
19735;SDS011;32064;49.310;8.646;2023-03-24T08:17:08;2.17;;;1.48;;
19735;SDS011;32064;49.310;8.646;2023-03-24T08:19:33;2.17;;;1.40;;
19735;SDS011;32064;49.310;8.646;2023-03-24T08:21:59;2.38;;;1.30;;
19735;SDS011;32064;49.310;8.646;2023-03-24T08:24:24;3.47;;;2.40;;
19735;SDS011;32064;49.310;8.646;2023-03-24T08:26:50;2.30;;;1.60;;
19735;SDS011;32064;49.310;8.646;2023-03-24T08:29:16;1.67;;;1.40;;
19735;SDS011;32064;49.310;8.646;2023-03-24T08:31:42;3.13;;;1.50;;
19735;SDS011;32064;49.310;8.646;2023-03-24T08:34:08;1.42;;;1.15;;
19735;SDS011;32064;49.310;8.646;2023-03-24T08:36:35;2.85;;;1.60;;
19735;SDS011;32064;49.310;8.646;2023-03-24T08:39:01;2.97;;;1.70;;
19735;SDS011;32064;49.310;8.646;2023-03-24T08:41:30;2.65;;;1.70;;
19735;SDS011;32064;49.310;8.646;2023-03-24T08:43:59;2.13;;;1.50;;
19735;SDS011;32064;49.310;8.646;2023-03-24T08:46:27;2.58;;;1.60;;
19735;SDS011;32064;49.310;8.646;2023-03-24T08:48:56;3.67;;;1.83;;
19735;SDS011;32064;49.310;8.646;2023-03-24T08:51:23;3.03;;;2.10;;
19735;SDS011;32064;49.310;8.646;2023-03-24T08:53:48;2.30;;;1.83;;
19735;SDS011;32064;49.310;8.646;2023-03-24T08:56:16;1.40;;;1.20;;
19735;SDS011;32064;49.310;8.646;2023-03-24T08:58:42;3.30;;;1.17;;
19735;SDS011;32064;49.310;8.646;2023-03-24T09:01:08;1.33;;;1.23;;
19735;SDS011;32064;49.310;8.646;2023-03-24T09:03:34;2.00;;;1.40;;
19735;SDS011;32064;49.310;8.646;2023-03-24T09:06:00;2.33;;;1.80;;
19735;SDS011;32064;49.310;8.646;2023-03-24T09:08:25;3.20;;;1.80;;
19735;SDS011;32064;49.310;8.646;2023-03-24T09:10:51;2.33;;;1.55;;
19735;SDS011;32064;49.310;8.646;2023-03-24T09:13:17;1.45;;;1.10;;
19735;SDS011;32064;49.310;8.646;2023-03-24T09:15:47;1.30;;;1.20;;
19735;SDS011;32064;49.310;8.646;2023-03-24T09:18:14;2.22;;;1.35;;
19735;SDS011;32064;49.310;8.646;2023-03-24T09:20:40;1.73;;;1.27;;
19735;SDS011;32064;49.310;8.646;2023-03-24T09:23:05;2.88;;;1.13;;
19735;SDS011;32064;49.310;8.646;2023-03-24T09:25:31;1.63;;;0.93;;
19735;SDS011;32064;49.310;8.646;2023-03-24T09:27:56;1.10;;;0.95;;
19735;SDS011;32064;49.310;8.646;2023-03-24T09:30:21;1.15;;;1.00;;
19735;SDS011;32064;49.310;8.646;2023-03-24T09:32:47;1.08;;;0.98;;
19735;SDS011;32064;49.310;8.646;2023-03-24T09:35:13;1.70;;;1.15;;
19735;SDS011;32064;49.310;8.646;2023-03-24T09:37:39;1.30;;;1.20;;
19735;SDS011;32064;49.310;8.646;2023-03-24T09:40:07;7.55;;;3.00;;
19735;SDS011;32064;49.310;8.646;2023-03-24T09:42:39;5.35;;;1.80;;
19735;SDS011;32064;49.310;8.646;2023-03-24T09:45:11;1.90;;;1.33;;
19735;SDS011;32064;49.310;8.646;2023-03-24T09:47:41;1.45;;;1.35;;
19735;SDS011;32064;49.310;8.646;2023-03-24T09:50:22;1.60;;;1.13;;
19735;SDS011;32064;49.310;8.646;2023-03-24T09:52:48;1.33;;;1.08;;
19735;SDS011;32064;49.310;8.646;2023-03-24T09:55:25;2.95;;;1.27;;
19735;SDS011;32064;49.310;8.646;2023-03-24T09:57:52;1.13;;;1.00;;
19735;SDS011;32064;49.310;8.646;2023-03-24T10:00:23;4.32;;;1.42;;
19735;SDS011;32064;49.310;8.646;2023-03-24T10:02:52;1.95;;;1.75;;
19735;SDS011;32064;49.310;8.646;2023-03-24T10:05:23;2.97;;;1.20;;
19735;SDS011;32064;49.310;8.646;2023-03-24T10:07:54;3.35;;;2.10;;
19735;SDS011;32064;49.310;8.646;2023-03-24T10:12:52;1.77;;;1.20;;
19735;SDS011;32064;49.310;8.646;2023-03-24T10:22:00;2.70;;;1.35;;
19735;SDS011;32064;49.310;8.646;2023-03-24T10:27:26;3.97;;;1.40;;
19735;SDS011;32064;49.310;8.646;2023-03-24T10:29:59;1.10;;;1.00;;
19735;SDS011;32064;49.310;8.646;2023-03-24T10:32:31;1.95;;;1.60;;
19735;SDS011;32064;49.310;8.646;2023-03-24T10:34:59;2.30;;;1.52;;
19735;SDS011;32064;49.310;8.646;2023-03-24T10:37:33;3.60;;;1.63;;
19735;SDS011;32064;49.310;8.646;2023-03-24T10:39:59;1.88;;;1.20;;
19735;SDS011;32064;49.310;8.646;2023-03-24T10:42:27;1.92;;;1.25;;
19735;SDS011;32064;49.310;8.646;2023-03-24T10:44:56;1.80;;;1.30;;
19735;SDS011;32064;49.310;8.646;2023-03-24T10:47:26;2.53;;;1.42;;
19735;SDS011;32064;49.310;8.646;2023-03-24T10:49:59;1.30;;;1.20;;
19735;SDS011;32064;49.310;8.646;2023-03-24T10:52:26;1.30;;;1.20;;
19735;SDS011;32064;49.310;8.646;2023-03-24T10:54:54;1.30;;;1.20;;
19735;SDS011;32064;49.310;8.646;2023-03-24T10:57:20;1.70;;;1.58;;
19735;SDS011;32064;49.310;8.646;2023-03-24T11:02:21;1.65;;;1.50;;
19735;SDS011;32064;49.310;8.646;2023-03-24T11:04:51;1.40;;;1.30;;
19735;SDS011;32064;49.310;8.646;2023-03-24T11:07:21;2.03;;;1.20;;
19735;SDS011;32064;49.310;8.646;2023-03-24T11:12:27;1.80;;;1.30;;
19735;SDS011;32064;49.310;8.646;2023-03-24T11:15:28;1.13;;;1.00;;
19735;SDS011;32064;49.310;8.646;2023-03-24T11:17:57;2.22;;;1.15;;
19735;SDS011;32064;49.310;8.646;2023-03-24T11:20:35;1.38;;;1.10;;
19735;SDS011;32064;49.310;8.646;2023-03-24T11:23:03;1.40;;;1.00;;
19735;SDS011;32064;49.310;8.646;2023-03-24T11:25:34;1.23;;;1.10;;
19735;SDS011;32064;49.310;8.646;2023-03-24T11:28:02;1.65;;;1.30;;
19735;SDS011;32064;49.310;8.646;2023-03-24T11:30:34;1.77;;;1.17;;
19735;SDS011;32064;49.310;8.646;2023-03-24T11:33:44;1.63;;;1.00;;
19735;SDS011;32064;49.310;8.646;2023-03-24T11:42:04;2.20;;;1.20;;
19735;SDS011;32064;49.310;8.646;2023-03-24T11:44:29;1.95;;;0.70;;
19735;SDS011;32064;49.310;8.646;2023-03-24T11:47:04;2.15;;;0.93;;
19735;SDS011;32064;49.310;8.646;2023-03-24T11:49:37;3.42;;;0.88;;
19735;SDS011;32064;49.310;8.646;2023-03-24T11:52:20;2.22;;;0.70;;
19735;SDS011;32064;49.310;8.646;2023-03-24T11:54:48;0.50;;;0.50;;
19735;SDS011;32064;49.310;8.646;2023-03-24T11:57:14;0.55;;;0.50;;
19735;SDS011;32064;49.310;8.646;2023-03-24T11:59:50;1.45;;;0.65;;
19735;SDS011;32064;49.310;8.646;2023-03-24T12:07:50;1.15;;;0.90;;
19735;SDS011;32064;49.310;8.646;2023-03-24T12:13:12;0.80;;;0.80;;
19735;SDS011;32064;49.310;8.646;2023-03-24T12:27:01;0.98;;;0.88;;
19735;SDS011;32064;49.310;8.646;2023-03-24T12:32:44;1.50;;;0.70;;
19735;SDS011;32064;49.310;8.646;2023-03-24T12:37:53;0.80;;;0.50;;
19735;SDS011;32064;49.310;8.646;2023-03-24T12:45:55;1.10;;;0.57;;
19735;SDS011;32064;49.310;8.646;2023-03-24T12:48:29;1.30;;;0.88;;
19735;SDS011;32064;49.310;8.646;2023-03-24T12:54:08;1.63;;;0.75;;
19735;SDS011;32064;49.310;8.646;2023-03-24T12:56:47;0.70;;;0.60;;
19735;SDS011;32064;49.310;8.646;2023-03-24T12:59:21;2.50;;;0.80;;
19735;SDS011;32064;49.310;8.646;2023-03-24T13:01:51;1.20;;;0.77;;
19735;SDS011;32064;49.310;8.646;2023-03-24T13:07:07;1.70;;;0.77;;
19735;SDS011;32064;49.310;8.646;2023-03-24T13:12:20;3.03;;;1.30;;
19735;SDS011;32064;49.310;8.646;2023-03-24T13:14:50;1.45;;;0.75;;
19735;SDS011;32064;49.310;8.646;2023-03-24T13:20:11;1.05;;;0.80;;
19735;SDS011;32064;49.310;8.646;2023-03-24T13:22:38;2.97;;;0.90;;
19735;SDS011;32064;49.310;8.646;2023-03-24T13:25:06;1.63;;;0.80;;
19735;SDS011;32064;49.310;8.646;2023-03-24T13:27:43;2.35;;;0.70;;
19735;SDS011;32064;49.310;8.646;2023-03-24T13:32:50;1.20;;;0.77;;
19735;SDS011;32064;49.310;8.646;2023-03-24T13:38:15;1.67;;;1.15;;
19735;SDS011;32064;49.310;8.646;2023-03-24T13:40:48;2.40;;;0.98;;
19735;SDS011;32064;49.310;8.646;2023-03-24T13:43:28;1.55;;;0.60;;
19735;SDS011;32064;49.310;8.646;2023-03-24T13:46:00;2.22;;;0.63;;
19735;SDS011;32064;49.310;8.646;2023-03-24T13:48:35;1.25;;;0.63;;
19735;SDS011;32064;49.310;8.646;2023-03-24T13:53:38;1.60;;;0.82;;
19735;SDS011;32064;49.310;8.646;2023-03-24T13:56:08;1.23;;;0.55;;
19735;SDS011;32064;49.310;8.646;2023-03-24T14:01:16;1.98;;;0.95;;
19735;SDS011;32064;49.310;8.646;2023-03-24T14:06:46;1.50;;;0.77;;
19735;SDS011;32064;49.310;8.646;2023-03-24T14:12:06;4.55;;;1.17;;
19735;SDS011;32064;49.310;8.646;2023-03-24T14:17:39;2.75;;;1.08;;
19735;SDS011;32064;49.310;8.646;2023-03-24T14:22:45;1.75;;;1.10;;
19735;SDS011;32064;49.310;8.646;2023-03-24T14:28:22;2.03;;;1.00;;
19735;SDS011;32064;49.310;8.646;2023-03-24T14:30:54;0.85;;;0.73;;
19735;SDS011;32064;49.310;8.646;2023-03-24T14:33:23;2.97;;;1.98;;
19735;SDS011;32064;49.310;8.646;2023-03-24T14:35:50;5.50;;;0.95;;
19735;SDS011;32064;49.310;8.646;2023-03-24T14:38:25;3.20;;;1.33;;
19735;SDS011;32064;49.310;8.646;2023-03-24T14:40:54;1.83;;;0.77;;
19735;SDS011;32064;49.310;8.646;2023-03-24T14:45:53;3.08;;;1.02;;
19735;SDS011;32064;49.310;8.646;2023-03-24T14:48:32;2.17;;;0.88;;
19735;SDS011;32064;49.310;8.646;2023-03-24T14:51:07;2.40;;;1.00;;
19735;SDS011;32064;49.310;8.646;2023-03-24T14:53:42;1.25;;;0.80;;
19735;SDS011;32064;49.310;8.646;2023-03-24T14:56:11;1.95;;;0.80;;
19735;SDS011;32064;49.310;8.646;2023-03-24T14:58:38;1.88;;;0.82;;
19735;SDS011;32064;49.310;8.646;2023-03-24T15:01:06;2.67;;;0.80;;
19735;SDS011;32064;49.310;8.646;2023-03-24T15:03:35;1.15;;;0.90;;
19735;SDS011;32064;49.310;8.646;2023-03-24T15:08:35;1.95;;;0.80;;
19735;SDS011;32064;49.310;8.646;2023-03-24T15:11:07;1.33;;;1.00;;
19735;SDS011;32064;49.310;8.646;2023-03-24T15:18:37;2.95;;;0.80;;
19735;SDS011;32064;49.310;8.646;2023-03-24T15:23:56;1.23;;;0.70;;
19735;SDS011;32064;49.310;8.646;2023-03-24T15:26:23;1.33;;;0.88;;
19735;SDS011;32064;49.310;8.646;2023-03-24T15:28:55;1.63;;;0.95;;
19735;SDS011;32064;49.310;8.646;2023-03-24T15:31:21;2.83;;;1.13;;
19735;SDS011;32064;49.310;8.646;2023-03-24T15:33:49;1.88;;;1.10;;
19735;SDS011;32064;49.310;8.646;2023-03-24T15:36:20;0.80;;;0.60;;
19735;SDS011;32064;49.310;8.646;2023-03-24T15:38:48;1.50;;;0.80;;
19735;SDS011;32064;49.310;8.646;2023-03-24T15:41:16;2.58;;;0.95;;
19735;SDS011;32064;49.310;8.646;2023-03-24T15:43:45;3.67;;;0.70;;
19735;SDS011;32064;49.310;8.646;2023-03-24T15:48:48;1.55;;;1.02;;
19735;SDS011;32064;49.310;8.646;2023-03-24T15:51:14;3.17;;;1.73;;
19735;SDS011;32064;49.310;8.646;2023-03-24T15:53:41;3.15;;;1.20;;
19735;SDS011;32064;49.310;8.646;2023-03-24T15:56:28;1.52;;;0.98;;
19735;SDS011;32064;49.310;8.646;2023-03-24T15:59:11;2.97;;;0.98;;
19735;SDS011;32064;49.310;8.646;2023-03-24T16:01:39;3.60;;;1.00;;
19735;SDS011;32064;49.310;8.646;2023-03-24T16:04:06;2.22;;;1.10;;
19735;SDS011;32064;49.310;8.646;2023-03-24T16:06:46;1.83;;;0.75;;
19735;SDS011;32064;49.310;8.646;2023-03-24T16:09:14;2.13;;;1.00;;
19735;SDS011;32064;49.310;8.646;2023-03-24T16:11:45;3.38;;;1.45;;
19735;SDS011;32064;49.310;8.646;2023-03-24T16:14:32;1.80;;;0.90;;
19735;SDS011;32064;49.310;8.646;2023-03-24T16:16:58;1.42;;;1.20;;
19735;SDS011;32064;49.310;8.646;2023-03-24T16:19:26;1.80;;;1.15;;
19735;SDS011;32064;49.310;8.646;2023-03-24T16:21:53;1.98;;;1.00;;
19735;SDS011;32064;49.310;8.646;2023-03-24T16:24:18;2.25;;;1.15;;
19735;SDS011;32064;49.310;8.646;2023-03-24T16:26:44;3.25;;;1.67;;
19735;SDS011;32064;49.310;8.646;2023-03-24T16:31:42;2.60;;;1.38;;
19735;SDS011;32064;49.310;8.646;2023-03-24T16:34:09;2.00;;;1.00;;
19735;SDS011;32064;49.310;8.646;2023-03-24T16:36:34;2.60;;;1.15;;
19735;SDS011;32064;49.310;8.646;2023-03-24T16:39:00;0.80;;;0.63;;
19735;SDS011;32064;49.310;8.646;2023-03-24T16:41:27;1.90;;;0.60;;
19735;SDS011;32064;49.310;8.646;2023-03-24T16:43:53;1.65;;;0.75;;
19735;SDS011;32064;49.310;8.646;2023-03-24T16:48:50;0.88;;;0.80;;
19735;SDS011;32064;49.310;8.646;2023-03-24T16:51:15;1.88;;;1.38;;
19735;SDS011;32064;49.310;8.646;2023-03-24T16:53:42;1.52;;;0.77;;
19735;SDS011;32064;49.310;8.646;2023-03-24T16:56:09;1.42;;;0.90;;
19735;SDS011;32064;49.310;8.646;2023-03-24T16:58:38;1.33;;;0.88;;
19735;SDS011;32064;49.310;8.646;2023-03-24T17:01:11;2.65;;;1.00;;
19735;SDS011;32064;49.310;8.646;2023-03-24T17:03:50;2.20;;;1.00;;
19735;SDS011;32064;49.310;8.646;2023-03-24T17:06:18;2.10;;;1.02;;
19735;SDS011;32064;49.310;8.646;2023-03-24T17:08:44;3.65;;;2.00;;
19735;SDS011;32064;49.310;8.646;2023-03-24T17:11:10;4.57;;;2.70;;
19735;SDS011;32064;49.310;8.646;2023-03-24T17:13:35;1.50;;;1.08;;
19735;SDS011;32064;49.310;8.646;2023-03-24T17:16:01;2.65;;;1.77;;
19735;SDS011;32064;49.310;8.646;2023-03-24T17:18:26;4.90;;;2.90;;
19735;SDS011;32064;49.310;8.646;2023-03-24T17:20:51;1.83;;;1.30;;
19735;SDS011;32064;49.310;8.646;2023-03-24T17:23:17;3.63;;;1.42;;
19735;SDS011;32064;49.310;8.646;2023-03-24T17:25:43;2.35;;;1.83;;
19735;SDS011;32064;49.310;8.646;2023-03-24T17:28:12;5.78;;;2.55;;
19735;SDS011;32064;49.310;8.646;2023-03-24T17:30:39;4.53;;;1.85;;
19735;SDS011;32064;49.310;8.646;2023-03-24T17:33:05;2.00;;;1.55;;
19735;SDS011;32064;49.310;8.646;2023-03-24T17:35:30;2.35;;;1.17;;
19735;SDS011;32064;49.310;8.646;2023-03-24T17:37:56;3.25;;;1.00;;
19735;SDS011;32064;49.310;8.646;2023-03-24T17:40:22;2.17;;;1.30;;
19735;SDS011;32064;49.310;8.646;2023-03-24T17:42:47;4.18;;;1.02;;
19735;SDS011;32064;49.310;8.646;2023-03-24T17:45:14;1.50;;;1.40;;
19735;SDS011;32064;49.310;8.646;2023-03-24T17:47:42;4.03;;;2.38;;
19735;SDS011;32064;49.310;8.646;2023-03-24T17:50:08;2.15;;;1.95;;